createdAt,value
2022-12-22T00:03:12.823Z,100577.84
2022-12-22T00:06:03.782Z,100574.59
2022-12-22T00:08:50.103Z,100572.00
2022-12-22T00:11:39.172Z,100569.16
2022-12-22T00:14:32.671Z,100561.56
2022-12-22T00:17:42.678Z,100553.53
2022-12-22T00:20:36.482Z,100561.38
2022-12-22T00:23:24.222Z,100551.81
2022-12-22T00:26:10.588Z,100553.16
2022-12-22T00:28:57.895Z,100552.56
2022-12-22T00:31:45.067Z,100544.25
2022-12-22T00:34:39.747Z,100546.88
2022-12-22T00:37:30.890Z,100544.97
2022-12-22T00:40:39.342Z,100532.50
2022-12-22T00:43:34.956Z,100529.09
2022-12-22T00:46:22.915Z,100518.97
2022-12-22T00:49:15.684Z,100526.28
2022-12-22T00:52:05.148Z,100516.19
2022-12-22T00:54:53.379Z,100519.03
2022-12-22T00:57:47.217Z,100521.34
2022-12-22T01:00:38.457Z,100508.06
2022-12-22T01:03:29.049Z,100508.91
2022-12-22T01:06:18.685Z,100510.06
2022-12-22T01:09:08.586Z,100504.00
2022-12-22T01:11:55.690Z,100500.56
2022-12-22T01:14:41.934Z,100495.44
2022-12-22T01:17:29.024Z,100502.72
2022-12-22T01:20:15.518Z,100493.69
2022-12-22T01:23:01.729Z,100491.03
2022-12-22T01:25:49.359Z,100491.47
2022-12-22T01:28:36.875Z,100486.66
2022-12-22T01:31:37.010Z,100492.63
2022-12-22T01:34:24.048Z,100492.53
2022-12-22T01:37:10.124Z,100492.00
2022-12-22T01:39:59.266Z,100484.78
2022-12-22T01:42:53.781Z,100483.06
2022-12-22T01:45:44.083Z,100490.69
2022-12-22T01:48:32.993Z,100483.88
2022-12-22T01:51:25.593Z,100480.19
2022-12-22T01:54:17.096Z,100475.44
2022-12-22T01:57:07.204Z,100477.69
2022-12-22T01:59:58.397Z,100463.41
2022-12-22T02:02:46.560Z,100458.50
2022-12-22T02:05:35.006Z,100457.72
2022-12-22T02:08:36.354Z,100454.88
2022-12-22T02:11:38.149Z,100452.94
2022-12-22T02:14:39.655Z,100445.50
2022-12-22T02:17:39.768Z,100449.16
2022-12-22T02:20:54.232Z,100444.59
2022-12-22T02:24:13.161Z,100441.81
2022-12-22T02:27:26.101Z,100444.13
2022-12-22T02:30:16.259Z,100440.41
2022-12-22T02:33:10.145Z,100444.22
2022-12-22T02:36:05.800Z,100440.59
2022-12-22T02:39:05.329Z,100443.94
2022-12-22T02:42:01.440Z,100433.91
2022-12-22T02:45:01.565Z,100433.63
2022-12-22T02:48:00.739Z,100432.66
2022-12-22T02:50:54.420Z,100429.66
2022-12-22T02:53:42.938Z,100424.63
2022-12-22T02:56:30.325Z,100420.22
2022-12-22T02:59:17.881Z,100413.25
2022-12-22T03:02:07.851Z,100408.56
2022-12-22T03:04:54.690Z,100404.38
2022-12-22T03:07:40.574Z,100408.22
2022-12-22T03:10:32.599Z,100404.47
2022-12-22T03:13:19.852Z,100396.09
2022-12-22T03:16:06.104Z,100395.03
2022-12-22T03:18:57.250Z,100391.22
2022-12-22T03:21:43.449Z,100387.00
2022-12-22T03:24:36.127Z,100395.97
2022-12-22T03:27:05.380Z,100398.53
2022-12-22T03:29:33.875Z,100392.56
2022-12-22T03:32:05.216Z,100384.81
2022-12-22T03:34:35.295Z,100379.53
2022-12-22T03:37:03.996Z,100383.63
2022-12-22T03:39:33.757Z,100380.44
2022-12-22T03:42:21.283Z,100387.94
2022-12-22T03:45:07.526Z,100368.09
2022-12-22T03:47:35.926Z,100379.53
2022-12-22T03:50:08.616Z,100368.22
2022-12-22T03:52:38.632Z,100364.66
2022-12-22T03:55:09.753Z,100358.00
2022-12-22T03:57:41.783Z,100366.38
2022-12-22T04:00:13.011Z,100353.72
2022-12-22T04:02:42.378Z,100363.06
2022-12-22T04:05:13.940Z,100367.66
2022-12-22T04:07:46.146Z,100365.94
2022-12-22T04:10:32.601Z,100365.91
2022-12-22T04:13:03.393Z,100352.78
2022-12-22T04:15:34.251Z,100361.16
2022-12-22T04:18:03.349Z,100362.31
2022-12-22T04:20:33.510Z,100370.34
2022-12-22T04:23:02.045Z,100354.38
2022-12-22T04:25:31.258Z,100362.09
2022-12-22T04:28:00.845Z,100364.88
2022-12-22T04:30:29.556Z,100361.78
2022-12-22T04:33:01.109Z,100371.28
2022-12-22T04:35:30.078Z,100380.75
2022-12-22T04:38:01.849Z,100379.16
2022-12-22T04:40:31.216Z,100379.84
2022-12-22T04:43:00.545Z,100391.78
2022-12-22T04:45:29.190Z,100391.88
2022-12-22T04:47:58.855Z,100396.38
2022-12-22T04:50:28.005Z,100401.41
2022-12-22T04:52:57.728Z,100403.88
2022-12-22T04:55:27.936Z,100401.94
2022-12-22T04:57:57.409Z,100404.09
2022-12-22T05:00:26.535Z,100401.50
2022-12-22T05:02:55.879Z,100394.84
2022-12-22T05:05:24.517Z,100393.78
2022-12-22T05:07:54.903Z,100393.03
2022-12-22T05:10:23.421Z,100394.00
2022-12-22T05:12:59.477Z,100393.59
2022-12-22T05:15:31.877Z,100400.56
2022-12-22T05:18:04.333Z,100401.72
2022-12-22T05:20:33.629Z,100410.28
2022-12-22T05:23:03.023Z,100405.59
2022-12-22T05:25:35.514Z,100405.13
2022-12-22T05:28:06.712Z,100412.63
2022-12-22T05:30:35.748Z,100410.66
2022-12-22T05:33:06.375Z,100407.94
2022-12-22T05:35:34.946Z,100405.53
2022-12-22T05:38:03.489Z,100400.38
2022-12-22T05:40:32.749Z,100405.75
2022-12-22T05:43:03.862Z,100398.59
2022-12-22T05:45:35.748Z,100390.75
2022-12-22T05:48:04.959Z,100400.38
2022-12-22T05:50:33.625Z,100410.97
2022-12-22T05:53:02.825Z,100405.47
2022-12-22T05:55:31.230Z,100414.69
2022-12-22T05:58:01.916Z,100428.28
2022-12-22T06:00:33.813Z,100436.47
2022-12-22T06:03:03.992Z,100439.94
2022-12-22T06:05:36.745Z,100424.44
2022-12-22T06:08:08.698Z,100429.72
2022-12-22T06:10:38.290Z,100435.97
2022-12-22T06:13:07.656Z,100442.03
2022-12-22T06:15:38.653Z,100439.00
2022-12-22T06:18:08.808Z,100445.97
2022-12-22T06:20:38.779Z,100451.16
2022-12-22T06:23:09.367Z,100448.56
2022-12-22T06:25:39.491Z,100449.00
2022-12-22T06:28:09.644Z,100446.06
2022-12-22T06:30:41.366Z,100447.97
2022-12-22T06:33:11.355Z,100457.22
2022-12-22T06:35:39.885Z,100459.34
2022-12-22T06:38:08.727Z,100459.81
2022-12-22T06:40:37.699Z,100468.69
2022-12-22T06:43:09.805Z,100470.91
2022-12-22T06:45:42.799Z,100469.59
2022-12-22T06:48:14.031Z,100474.91
2022-12-22T06:50:43.447Z,100477.13
2022-12-22T06:53:12.889Z,100470.63
2022-12-22T06:55:52.358Z,100477.81
2022-12-22T06:58:21.353Z,100475.78
2022-12-22T07:00:51.727Z,100492.59
2022-12-22T07:03:21.013Z,100493.75
2022-12-22T07:05:50.848Z,100497.13
2022-12-22T07:11:20.160Z,100501.31
2022-12-22T07:13:49.916Z,100504.31
2022-12-22T07:16:20.403Z,100498.06
2022-12-22T07:18:49.244Z,100509.31
2022-12-22T07:21:18.456Z,100531.28
2022-12-22T07:23:47.811Z,100522.84
2022-12-22T07:26:17.305Z,100534.91
2022-12-22T07:28:45.724Z,100527.31
2022-12-22T07:31:23.151Z,100537.78
2022-12-22T07:33:53.526Z,100534.91
2022-12-22T07:36:22.663Z,100541.91
2022-12-22T07:38:52.817Z,100548.19
2022-12-22T07:41:39.951Z,100555.31
2022-12-22T07:44:10.792Z,100559.16
2022-12-22T07:46:44.979Z,100566.06
2022-12-22T07:49:31.907Z,100566.41
2022-12-22T07:52:04.387Z,100563.75
2022-12-22T07:54:41.687Z,100571.88
2022-12-22T07:57:14.702Z,100571.16
2022-12-22T07:59:43.535Z,100567.63
2022-12-22T08:02:14.877Z,100559.03
2022-12-22T08:04:44.900Z,100562.53
2022-12-22T08:07:13.779Z,100571.03
2022-12-22T08:09:45.864Z,100570.59
2022-12-22T08:12:14.723Z,100576.09
2022-12-22T08:14:46.228Z,100579.06
2022-12-22T08:17:17.554Z,100578.97
2022-12-22T08:19:46.439Z,100577.44
2022-12-22T08:22:15.592Z,100580.66
2022-12-22T08:24:45.332Z,100583.25
2022-12-22T08:27:25.996Z,100574.38
2022-12-22T08:30:00.043Z,100578.00
2022-12-22T08:32:30.729Z,100584.47
2022-12-22T08:34:59.615Z,100586.06
2022-12-22T08:37:30.500Z,100591.59
2022-12-22T08:40:05.069Z,100591.00
2022-12-22T08:42:37.857Z,100578.25
2022-12-22T08:45:09.493Z,100590.69
2022-12-22T08:47:39.901Z,100601.66
2022-12-22T08:50:16.974Z,100592.84
2022-12-22T08:52:48.818Z,100609.59
2022-12-22T08:55:19.515Z,100624.06
2022-12-22T08:57:56.033Z,100625.09
2022-12-22T09:00:25.893Z,100616.63
2022-12-22T09:02:57.785Z,100613.38
2022-12-22T09:05:26.620Z,100625.66
2022-12-22T09:07:57.163Z,100635.81
2022-12-22T09:10:26.094Z,100642.06
2022-12-22T09:12:55.664Z,100639.03
2022-12-22T09:15:24.172Z,100640.56
2022-12-22T09:17:53.118Z,100643.88
2022-12-22T09:20:24.182Z,100645.25
2022-12-22T09:22:52.944Z,100647.00
2022-12-22T09:25:22.201Z,100658.06
2022-12-22T09:27:51.016Z,100665.38
2022-12-22T09:30:19.806Z,100662.88
2022-12-22T09:32:48.716Z,100669.06
2022-12-22T09:35:18.495Z,100675.72
2022-12-22T09:37:49.863Z,100679.28
2022-12-22T09:40:22.107Z,100678.03
2022-12-22T09:42:51.645Z,100674.16
2022-12-22T09:45:21.388Z,100666.34
2022-12-22T09:47:53.978Z,100671.56
2022-12-22T09:50:27.390Z,100675.03
2022-12-22T09:53:02.951Z,100663.97
2022-12-22T09:55:42.247Z,100680.78
2022-12-22T09:58:26.487Z,100686.53
2022-12-22T10:01:10.380Z,100690.44
2022-12-22T10:03:49.229Z,100697.34
2022-12-22T10:06:22.777Z,100687.91
2022-12-22T10:08:55.795Z,100690.91
2022-12-22T10:11:29.755Z,100698.50
2022-12-22T10:14:04.201Z,100695.34
2022-12-22T10:16:33.606Z,100692.19
2022-12-22T10:19:11.249Z,100685.81
2022-12-22T10:26:28.774Z,100691.00
2022-12-22T10:29:05.041Z,100690.16
2022-12-22T10:31:37.003Z,100695.84
2022-12-22T10:34:16.102Z,100694.19
2022-12-22T10:36:49.773Z,100700.47
2022-12-22T10:39:25.453Z,100697.66
2022-12-22T10:42:01.910Z,100697.34
2022-12-22T10:44:35.442Z,100711.53
2022-12-22T10:47:20.043Z,100710.53
2022-12-22T10:52:40.001Z,100716.00
2022-12-22T10:55:21.983Z,100711.09
2022-12-22T10:57:52.680Z,100710.78
2022-12-22T11:00:29.294Z,100709.59
2022-12-22T11:03:01.082Z,100703.38
2022-12-22T11:05:30.757Z,100706.47
2022-12-22T11:08:05.715Z,100709.25
2022-12-22T11:10:40.444Z,100700.56
2022-12-22T11:14:03.736Z,100702.88
2022-12-22T11:16:41.798Z,100702.78
2022-12-22T11:19:39.117Z,100692.13
2022-12-22T11:22:24.065Z,100706.00
2022-12-22T11:25:16.918Z,100711.81
2022-12-22T11:27:59.591Z,100697.03
2022-12-22T11:30:44.266Z,100696.50
2022-12-22T11:33:34.681Z,100695.91
2022-12-22T11:36:09.848Z,100700.22
2022-12-22T11:38:48.483Z,100690.28
2022-12-22T11:41:37.934Z,100683.44
2022-12-22T11:44:50.566Z,100679.84
2022-12-22T11:47:31.533Z,100684.03
2022-12-22T11:51:01.812Z,100676.69
2022-12-22T11:54:10.424Z,100684.34
2022-12-22T11:56:54.549Z,100684.78
2022-12-22T11:59:50.672Z,100682.97
2022-12-22T12:02:57.964Z,100688.56
2022-12-22T12:06:32.939Z,100691.03
2022-12-22T12:09:39.859Z,100687.03
2022-12-22T12:12:22.804Z,100672.97
2022-12-22T12:15:18.291Z,100685.97
2022-12-22T12:18:38.628Z,100683.88
2022-12-22T12:21:28.701Z,100675.34
2022-12-22T12:24:38.749Z,100674.06
2022-12-22T12:27:37.123Z,100678.91
2022-12-22T12:33:25.993Z,100676.28
2022-12-22T12:36:19.262Z,100683.69
2022-12-22T12:39:09.865Z,100675.41
2022-12-22T12:42:02.014Z,100673.78
2022-12-22T12:44:41.217Z,100668.25
2022-12-22T12:47:36.371Z,100674.91
2022-12-22T12:50:40.570Z,100693.44
2022-12-22T12:53:24.668Z,100694.22
2022-12-22T12:55:58.512Z,100681.47
2022-12-22T12:58:59.384Z,100684.25
2022-12-22T13:02:03.132Z,100671.78
2022-12-22T13:05:13.984Z,100667.94
2022-12-22T13:08:19.622Z,100671.41
2022-12-22T13:12:01.140Z,100665.25
2022-12-22T13:15:10.782Z,100686.28
2022-12-22T13:17:54.062Z,100690.41
2022-12-22T13:20:28.795Z,100708.50
2022-12-22T13:23:00.337Z,100698.44
2022-12-22T13:25:45.971Z,100702.16
2022-12-22T13:28:19.444Z,100708.34
2022-12-22T13:30:55.219Z,100692.91
2022-12-22T13:33:31.106Z,100704.88
2022-12-22T13:36:02.124Z,100694.41
2022-12-22T13:38:35.348Z,100693.84
2022-12-22T13:41:21.352Z,100699.63
2022-12-22T13:44:01.609Z,100703.31
2022-12-22T13:46:35.548Z,100696.59
2022-12-22T13:49:05.236Z,100698.69
2022-12-22T13:51:37.819Z,100692.31
2022-12-22T13:54:17.912Z,100681.50
2022-12-22T13:56:51.395Z,100692.56
2022-12-22T13:59:29.101Z,100688.41
2022-12-22T14:02:05.816Z,100678.75
2022-12-22T14:04:35.153Z,100673.91
2022-12-22T14:07:14.246Z,100665.50
2022-12-22T14:09:55.634Z,100668.22
2022-12-22T14:12:41.155Z,100675.81
2022-12-22T14:15:18.140Z,100681.53
2022-12-22T14:17:53.221Z,100685.84
2022-12-22T14:20:26.267Z,100690.63
2022-12-22T14:23:00.171Z,100671.13
2022-12-22T14:25:33.184Z,100665.81
2022-12-22T14:28:03.629Z,100660.81
2022-12-22T14:30:38.848Z,100656.47
2022-12-22T14:33:33.137Z,100663.38
2022-12-22T14:36:25.644Z,100653.47
2022-12-22T14:38:57.222Z,100655.13
2022-12-22T14:41:46.633Z,100648.75
2022-12-22T14:44:20.068Z,100643.56
2022-12-22T14:47:12.107Z,100648.22
2022-12-22T14:49:52.115Z,100648.41
2022-12-22T14:52:27.991Z,100642.31
2022-12-22T14:54:57.819Z,100644.16
2022-12-22T14:57:35.108Z,100625.06
2022-12-22T15:00:08.817Z,100633.66
2022-12-22T15:02:41.125Z,100625.09
2022-12-22T15:05:25.168Z,100628.72
2022-12-22T15:08:06.035Z,100630.44
2022-12-22T15:10:41.532Z,100630.09
2022-12-22T15:13:26.716Z,100624.25
2022-12-22T15:15:56.869Z,100612.84
2022-12-22T15:18:28.477Z,100610.69
2022-12-22T15:21:00.285Z,100616.19
2022-12-22T15:23:29.310Z,100618.72
2022-12-22T15:25:58.152Z,100613.56
2022-12-22T15:28:27.115Z,100606.28
2022-12-22T15:30:57.916Z,100606.66
2022-12-22T15:33:27.466Z,100608.88
2022-12-22T15:36:01.244Z,100596.13
2022-12-22T15:38:36.707Z,100600.78
2022-12-22T15:41:08.657Z,100604.22
2022-12-22T15:43:57.069Z,100600.59
2022-12-22T15:46:30.595Z,100613.47
2022-12-22T15:49:00.028Z,100594.75
2022-12-22T15:51:32.416Z,100590.38
2022-12-22T15:54:02.992Z,100588.00
2022-12-22T15:56:34.791Z,100590.84
2022-12-22T15:59:03.867Z,100599.81
2022-12-22T16:01:33.716Z,100600.28
2022-12-22T16:04:02.840Z,100588.69
2022-12-22T16:06:34.748Z,100599.22
2022-12-22T16:09:07.285Z,100598.28
2022-12-22T16:11:36.209Z,100600.03
2022-12-22T16:14:05.029Z,100592.06
2022-12-22T16:16:33.984Z,100573.38
2022-12-22T16:22:39.039Z,100580.75
2022-12-22T16:25:17.130Z,100578.09
2022-12-22T16:33:38.890Z,100564.28
2022-12-22T16:39:14.317Z,100557.81
2022-12-22T16:42:00.506Z,100548.34
2022-12-22T16:44:32.673Z,100549.91
2022-12-22T16:47:18.458Z,100545.00
2022-12-22T16:49:48.761Z,100547.31
2022-12-22T16:52:26.643Z,100543.16
2022-12-22T16:55:02.368Z,100548.88
2022-12-22T16:57:45.170Z,100551.75
2022-12-22T17:00:19.693Z,100544.22
2022-12-22T17:03:01.890Z,100538.78
2022-12-22T17:05:44.767Z,100548.63
2022-12-22T17:08:27.255Z,100546.03
2022-12-22T17:11:09.802Z,100547.25
2022-12-22T17:13:40.687Z,100538.03
2022-12-22T17:16:17.607Z,100533.69
2022-12-22T17:18:46.596Z,100530.84
2022-12-22T17:21:18.560Z,100519.06
2022-12-22T17:23:49.804Z,100519.38
2022-12-22T17:26:24.009Z,100504.13
2022-12-22T17:28:53.568Z,100502.06
2022-12-22T17:31:24.970Z,100494.50
2022-12-22T17:33:54.089Z,100485.91
2022-12-22T17:36:33.802Z,100492.16
2022-12-22T17:39:06.339Z,100482.13
2022-12-22T17:41:36.779Z,100490.69
2022-12-22T17:44:05.592Z,100482.50
2022-12-22T17:46:34.045Z,100476.97
2022-12-22T17:49:02.799Z,100488.22
2022-12-22T17:51:31.365Z,100480.00
2022-12-22T17:54:00.340Z,100474.34
2022-12-22T17:56:31.997Z,100467.91
2022-12-22T17:59:01.788Z,100462.47
2022-12-22T18:01:33.962Z,100451.38
2022-12-22T18:04:02.979Z,100455.72
2022-12-22T18:06:36.021Z,100459.34
2022-12-22T18:09:05.381Z,100464.66
2022-12-22T18:11:36.320Z,100447.22
2022-12-22T18:14:07.899Z,100443.09
2022-12-22T18:16:36.377Z,100433.97
2022-12-22T18:19:05.571Z,100429.56
2022-12-22T18:21:34.676Z,100428.44
2022-12-22T18:24:05.013Z,100429.19
2022-12-22T18:26:33.934Z,100416.03
2022-12-22T18:29:04.240Z,100419.38
2022-12-22T18:31:34.736Z,100429.13
2022-12-22T18:34:03.924Z,100419.56
2022-12-22T18:36:34.450Z,100420.28
2022-12-22T18:39:05.726Z,100410.25
2022-12-22T18:41:36.246Z,100410.84
2022-12-22T18:44:05.153Z,100413.09
2022-12-22T18:46:35.531Z,100421.56
2022-12-22T18:49:06.067Z,100402.03
2022-12-22T18:51:34.949Z,100392.50
2022-12-22T18:54:04.208Z,100391.44
2022-12-22T18:56:34.009Z,100394.19
2022-12-22T18:59:02.604Z,100384.59
2022-12-22T19:01:33.266Z,100373.25
2022-12-22T19:04:05.751Z,100380.63
2022-12-22T19:06:34.469Z,100384.66
2022-12-22T19:09:04.291Z,100388.22
2022-12-22T19:11:34.285Z,100393.44
2022-12-22T19:14:02.955Z,100386.53
2022-12-22T19:16:31.637Z,100381.19
2022-12-22T19:19:01.735Z,100379.47
2022-12-22T19:21:32.412Z,100373.56
2022-12-22T19:24:01.890Z,100376.81
2022-12-22T19:26:30.441Z,100377.31
2022-12-22T19:29:02.340Z,100381.72
2022-12-22T19:31:34.292Z,100376.81
2022-12-22T19:34:06.591Z,100392.03
2022-12-22T19:36:37.333Z,100379.88
2022-12-22T19:39:06.303Z,100376.53
2022-12-22T19:41:45.115Z,100369.94
2022-12-22T19:44:21.822Z,100373.09
2022-12-22T19:46:52.016Z,100370.31
2022-12-22T19:49:24.899Z,100370.16
2022-12-22T19:51:57.072Z,100371.00
2022-12-22T19:54:28.211Z,100366.09
2022-12-22T19:56:57.995Z,100375.78
2022-12-22T19:59:38.544Z,100365.34
2022-12-22T20:02:26.569Z,100367.28
2022-12-22T20:04:56.755Z,100353.16
2022-12-22T20:07:29.748Z,100346.41
2022-12-22T20:09:58.197Z,100360.28
2022-12-22T20:12:30.460Z,100367.47
2022-12-22T20:14:59.251Z,100361.59
2022-12-22T20:17:29.683Z,100357.78
2022-12-22T20:19:58.322Z,100354.00
2022-12-22T20:22:28.890Z,100354.38
2022-12-22T20:24:58.186Z,100350.53
2022-12-22T20:27:35.821Z,100358.38
2022-12-22T20:30:05.150Z,100338.47
2022-12-22T20:32:33.686Z,100353.44
2022-12-22T20:35:06.492Z,100357.75
2022-12-22T20:37:37.694Z,100364.16
2022-12-22T20:40:20.840Z,100365.78
2022-12-22T20:42:50.010Z,100368.72
2022-12-22T20:45:21.249Z,100366.56
2022-12-22T20:47:50.607Z,100367.09
2022-12-22T20:50:26.094Z,100367.41
2022-12-22T20:52:57.687Z,100360.25
2022-12-22T20:55:28.520Z,100357.03
2022-12-22T20:57:57.247Z,100359.56
2022-12-22T21:00:29.211Z,100367.28
2022-12-22T21:02:58.073Z,100369.53
2022-12-22T21:05:26.701Z,100373.03
2022-12-22T21:07:56.605Z,100374.41
2022-12-22T21:10:27.235Z,100371.50
2022-12-22T21:12:56.084Z,100380.88
2022-12-22T21:15:28.485Z,100374.25
2022-12-22T21:17:58.742Z,100380.34
2022-12-22T21:20:30.872Z,100380.69
2022-12-22T21:23:01.653Z,100385.91
2022-12-22T21:25:30.634Z,100380.69
2022-12-22T21:28:00.105Z,100377.16
2022-12-22T21:30:29.738Z,100377.47
2022-12-22T21:32:58.934Z,100375.69
2022-12-22T21:35:32.503Z,100371.72
2022-12-22T21:38:03.473Z,100365.31
2022-12-22T21:40:34.071Z,100361.84
2022-12-22T21:43:02.686Z,100365.84
2022-12-22T21:45:35.806Z,100373.47
2022-12-22T21:48:13.442Z,100382.69
2022-12-22T21:50:42.531Z,100383.44
2022-12-22T21:53:19.877Z,100384.94
2022-12-22T21:55:51.713Z,100370.44
2022-12-22T21:58:21.950Z,100364.66
2022-12-22T22:00:51.415Z,100370.59
2022-12-22T22:03:20.366Z,100364.75
2022-12-22T22:05:49.937Z,100375.81
2022-12-22T22:08:21.611Z,100376.91
2022-12-22T22:10:50.210Z,100384.66
2022-12-22T22:13:19.339Z,100381.44
2022-12-22T22:15:48.082Z,100377.34
2022-12-22T22:18:19.162Z,100379.56
2022-12-22T22:20:51.068Z,100382.38
2022-12-22T22:23:21.332Z,100384.81
2022-12-22T22:25:57.117Z,100391.38
2022-12-22T22:28:27.027Z,100390.56
2022-12-22T22:30:55.735Z,100392.78
2022-12-22T22:33:24.756Z,100397.31
2022-12-22T22:35:54.032Z,100395.59
2022-12-22T22:38:24.709Z,100383.41
2022-12-22T22:40:53.310Z,100384.94
2022-12-22T22:43:30.631Z,100392.06
2022-12-22T22:45:59.409Z,100394.13
2022-12-22T22:48:27.951Z,100393.13
2022-12-22T22:50:56.618Z,100392.81
2022-12-22T22:53:26.987Z,100402.25
2022-12-22T22:55:55.745Z,100396.69
2022-12-22T22:58:24.131Z,100397.09
2022-12-22T23:00:52.980Z,100409.28
2022-12-22T23:03:30.972Z,100405.59
2022-12-22T23:06:03.394Z,100396.38
2022-12-22T23:08:34.740Z,100395.59
2022-12-22T23:11:05.056Z,100395.94
2022-12-22T23:13:33.912Z,100389.00
2022-12-22T23:16:05.115Z,100388.19
2022-12-22T23:18:36.039Z,100376.41
2022-12-22T23:21:08.473Z,100390.47
2022-12-22T23:23:40.401Z,100382.69
2022-12-22T23:26:10.757Z,100386.81
2022-12-22T23:28:41.755Z,100380.78
2022-12-22T23:31:15.153Z,100381.44
2022-12-22T23:33:43.931Z,100386.81
2022-12-22T23:36:12.853Z,100387.38
2022-12-22T23:38:43.939Z,100381.09
2022-12-22T23:41:19.120Z,100389.13
2022-12-22T23:43:49.317Z,100404.75
2022-12-22T23:46:20.549Z,100398.88
2022-12-22T23:48:53.454Z,100411.53
2022-12-22T23:51:23.871Z,100404.38
2022-12-22T23:53:54.068Z,100408.22
2022-12-22T23:56:22.599Z,100403.81
2022-12-22T23:58:54.888Z,100397.47
